Bailey, Michigan
Current Conditions -  °F | °C
As of 9:34 AM on Monday 26 Jan 2015 (Local Time) from KFFX Reporting Station
Overcast Overcast  
Wind Chill:   Ceiling: 9000
Heat Index:   Visibility: 10mi
Dew Point:   Wind: 0mph
Humidity: 84%   Direction: NA
Pressure: 29.96"   Gusts: NA
Location:  43.28°N, 85.81°W
Report Text: KFFX 261434Z AUTO 00000KT 10SM OVC090 M13/M15 A2996 RMK AO2 T11331155
Loading
Personal Weather Stations






























Interactive Weather Map New forecast layout! Learn more

10-Day Weather Forecast

Advertisements
Track Severe Weather on mobile